createdAt,value
2019-05-07T00:00:16.442Z,99.90
2019-05-07T00:02:37.883Z,99.90
2019-05-07T00:04:59.459Z,99.90
2019-05-07T00:07:22.408Z,99.90
2019-05-07T00:09:43.921Z,99.90
2019-05-07T00:12:05.417Z,99.90
2019-05-07T00:14:26.717Z,99.90
2019-05-07T00:16:48.189Z,99.90
2019-05-07T00:19:09.402Z,99.90
2019-05-07T00:21:32.559Z,99.90
2019-05-07T00:23:53.880Z,99.90
2019-05-07T00:26:15.312Z,99.90
2019-05-07T00:28:36.884Z,99.90
2019-05-07T00:30:58.193Z,99.90
2019-05-07T00:33:19.539Z,99.90
2019-05-07T00:35:45.944Z,99.90
2019-05-07T00:38:09.145Z,99.90
2019-05-07T00:40:32.406Z,99.90
2019-05-07T00:42:58.797Z,99.90
2019-05-07T00:45:23.835Z,99.90
2019-05-07T00:47:45.262Z,99.90
2019-05-07T00:50:08.686Z,99.90
2019-05-07T00:52:29.948Z,99.90
2019-05-07T00:54:53.096Z,99.90
2019-05-07T00:57:14.524Z,99.90
2019-05-07T00:59:35.796Z,99.90
2019-05-07T01:01:57.070Z,99.90
2019-05-07T01:04:18.408Z,99.90
2019-05-07T01:06:42.391Z,99.90
2019-05-07T01:09:04.912Z,99.90
2019-05-07T01:11:26.398Z,99.90
2019-05-07T01:13:47.747Z,99.90
2019-05-07T01:16:09.210Z,99.90
2019-05-07T01:18:32.372Z,99.90
2019-05-07T01:20:53.751Z,99.90
2019-05-07T01:23:15.025Z,99.90
2019-05-07T01:25:36.302Z,99.90
2019-05-07T01:27:57.683Z,99.90
2019-05-07T01:30:19.169Z,99.90
2019-05-07T01:32:42.593Z,99.90
2019-05-07T01:35:07.034Z,99.90
2019-05-07T01:37:28.324Z,99.90
2019-05-07T01:39:49.571Z,99.90
2019-05-07T01:42:12.756Z,99.90
2019-05-07T01:44:33.981Z,99.90
2019-05-07T01:46:55.281Z,99.90
2019-05-07T01:49:16.627Z,99.90
2019-05-07T01:51:37.869Z,99.90
2019-05-07T01:53:59.228Z,99.90
2019-05-07T01:56:22.794Z,99.90
2019-05-07T01:58:43.705Z,99.90
2019-05-07T02:01:05.546Z,99.90
2019-05-07T02:03:28.694Z,99.90
2019-05-07T02:06:08.495Z,99.90
2019-05-07T02:08:34.409Z,99.90
2019-05-07T02:11:02.069Z,99.90
2019-05-07T02:13:23.534Z,99.90
2019-05-07T02:15:57.353Z,99.90
2019-05-07T02:18:07.931Z,99.90
2019-05-07T02:20:29.261Z,99.90
2019-05-07T02:22:50.500Z,99.90
2019-05-07T02:25:12.766Z,99.90
2019-05-07T02:27:34.540Z,99.90
2019-05-07T02:29:55.804Z,99.90
2019-05-07T02:32:17.114Z,99.90
2019-05-07T02:34:38.632Z,99.90
2019-05-07T02:36:59.915Z,99.90
2019-05-07T02:39:33.067Z,99.90
2019-05-07T02:41:54.188Z,99.90
2019-05-07T02:44:16.172Z,99.90
2019-05-07T02:46:39.283Z,99.90
2019-05-07T02:49:08.268Z,99.90
2019-05-07T02:51:33.517Z,99.90
2019-05-07T02:54:03.596Z,99.90
2019-05-07T02:56:25.182Z,99.90
2019-05-07T02:58:46.496Z,99.90
2019-05-07T03:01:07.827Z,99.90
2019-05-07T03:03:29.063Z,99.90
2019-05-07T03:05:53.451Z,99.90
2019-05-07T03:08:13.777Z,99.90
2019-05-07T03:10:35.495Z,99.90
2019-05-07T03:12:56.764Z,99.90
2019-05-07T03:15:17.993Z,99.90
2019-05-07T03:17:39.323Z,99.90
2019-05-07T03:20:03.214Z,99.90
2019-05-07T03:22:24.661Z,99.90
2019-05-07T03:24:47.815Z,99.90
2019-05-07T03:27:09.325Z,99.90
2019-05-07T03:29:33.297Z,99.90
2019-05-07T03:31:58.687Z,99.90
2019-05-07T03:34:25.841Z,99.90
2019-05-07T03:36:56.284Z,99.90
2019-05-07T03:39:15.507Z,99.90
2019-05-07T03:41:43.369Z,99.90
2019-05-07T03:44:03.686Z,99.90
2019-05-07T03:46:24.995Z,99.90
2019-05-07T03:48:46.605Z,99.90
2019-05-07T03:51:08.034Z,99.90
2019-05-07T03:53:29.528Z,99.90
2019-05-07T03:55:53.830Z,99.90
2019-05-07T03:58:14.764Z,99.90
2019-05-07T04:00:36.415Z,99.90
2019-05-07T04:02:57.857Z,99.90
2019-05-07T04:05:19.208Z,99.90
2019-05-07T04:07:43.117Z,99.90
2019-05-07T04:10:05.290Z,99.90
2019-05-07T04:12:27.070Z,99.90
2019-05-07T04:14:48.726Z,99.90
2019-05-07T04:17:21.166Z,99.90
2019-05-07T04:19:33.165Z,99.90
2019-05-07T04:21:54.466Z,99.90
2019-05-07T04:24:29.435Z,99.90
2019-05-07T04:26:55.109Z,99.90
2019-05-07T04:29:17.298Z,99.90
2019-05-07T04:31:42.902Z,99.90
2019-05-07T04:34:04.715Z,99.90
2019-05-07T04:36:27.864Z,99.90
2019-05-07T04:38:49.158Z,99.90
2019-05-07T04:41:13.583Z,99.90
2019-05-07T04:43:33.922Z,99.90
2019-05-07T04:45:55.435Z,99.90
2019-05-07T04:48:16.664Z,99.90
2019-05-07T04:50:44.386Z,99.90
2019-05-07T04:53:03.150Z,99.90
2019-05-07T04:55:24.418Z,99.90
2019-05-07T04:57:45.635Z,99.90
2019-05-07T05:00:09.434Z,99.90
2019-05-07T05:02:35.736Z,99.90
2019-05-07T05:04:56.920Z,99.90
2019-05-07T05:07:18.153Z,99.90
2019-05-07T05:09:39.438Z,99.90
2019-05-07T05:12:03.027Z,99.90
2019-05-07T05:14:24.355Z,99.90
2019-05-07T05:16:45.569Z,99.90
2019-05-07T05:19:06.761Z,99.90
2019-05-07T05:21:35.469Z,99.90
2019-05-07T05:24:13.897Z,99.90
2019-05-07T05:26:35.105Z,99.90
2019-05-07T05:28:56.317Z,99.90
2019-05-07T05:31:17.604Z,99.90
2019-05-07T05:33:38.817Z,99.90
2019-05-07T05:36:00.070Z,99.90
2019-05-07T05:38:22.127Z,99.90
2019-05-07T05:40:43.657Z,99.90
2019-05-07T05:43:23.345Z,99.90
2019-05-07T05:45:54.713Z,99.90
2019-05-07T05:48:15.949Z,99.90
2019-05-07T05:50:44.902Z,99.90
2019-05-07T05:53:12.238Z,99.90
2019-05-07T05:55:33.793Z,99.90
2019-05-07T05:57:57.239Z,99.90
2019-05-07T06:00:26.896Z,99.90
2019-05-07T06:02:58.930Z,99.90
2019-05-07T06:05:36.787Z,99.90
2019-05-07T06:08:05.741Z,99.50
2019-05-07T06:13:15.554Z,99.50
2019-05-07T06:15:57.023Z,98.80
2019-05-07T06:18:38.248Z,97.80
2019-05-07T06:21:03.003Z,98.00
2019-05-07T06:23:29.212Z,97.40
2019-05-07T06:25:52.328Z,97.00
2019-05-07T06:28:13.522Z,96.80
2019-05-07T06:30:34.705Z,95.00
2019-05-07T06:32:55.912Z,94.50
2019-05-07T06:35:19.329Z,93.50
2019-05-07T06:37:40.345Z,92.90
2019-05-07T06:40:23.802Z,93.20
2019-05-07T06:42:57.709Z,92.30
2019-05-07T06:45:37.314Z,92.00
2019-05-07T06:47:58.533Z,92.60
2019-05-07T06:50:21.947Z,91.90
2019-05-07T06:52:42.919Z,90.50
2019-05-07T06:55:04.714Z,88.40
2019-05-07T06:57:27.649Z,88.70
2019-05-07T06:59:53.020Z,87.60
2019-05-07T07:02:32.865Z,86.50
2019-05-07T07:04:56.093Z,89.50
2019-05-07T07:07:37.217Z,88.90
2019-05-07T07:10:05.314Z,89.50
2019-05-07T07:12:28.748Z,89.90
2019-05-07T07:14:51.771Z,87.60
2019-05-07T07:17:13.140Z,87.60
2019-05-07T07:19:36.088Z,85.40
2019-05-07T07:21:57.457Z,85.40
2019-05-07T07:24:18.769Z,84.80
2019-05-07T07:26:42.077Z,82.60
2019-05-07T07:29:03.407Z,81.00
2019-05-07T07:31:31.936Z,81.40
2019-05-07T07:33:55.353Z,80.10
2019-05-07T07:36:17.171Z,79.20
2019-05-07T07:38:38.392Z,76.90
2019-05-07T07:41:42.244Z,76.70
2019-05-07T07:44:03.883Z,79.20
2019-05-07T07:46:25.094Z,76.70
2019-05-07T07:48:46.352Z,76.30
2019-05-07T07:51:08.970Z,77.50
2019-05-07T07:53:33.102Z,74.60
2019-05-07T07:56:12.140Z,74.40
2019-05-07T07:58:41.975Z,72.20
2019-05-07T08:01:14.385Z,72.50
2019-05-07T08:03:35.578Z,69.70
2019-05-07T08:05:57.273Z,72.70
2019-05-07T08:08:18.467Z,69.80
2019-05-07T08:10:42.510Z,67.00
2019-05-07T08:13:03.990Z,68.80
2019-05-07T08:15:25.214Z,64.80
2019-05-07T08:17:47.246Z,65.10
2019-05-07T08:20:09.383Z,63.30
2019-05-07T08:22:32.816Z,62.30
2019-05-07T08:24:53.695Z,61.10
2019-05-07T08:27:15.437Z,61.10
2019-05-07T08:29:36.885Z,59.70
2019-05-07T08:32:06.074Z,59.30
2019-05-07T08:34:29.314Z,55.80
2019-05-07T08:36:52.612Z,58.20
2019-05-07T08:39:13.662Z,56.30
2019-05-07T08:41:34.887Z,54.10
2019-05-07T08:44:11.223Z,54.30
2019-05-07T08:46:23.257Z,53.40
2019-05-07T08:48:46.546Z,52.70
2019-05-07T08:51:07.853Z,53.60
2019-05-07T08:53:29.096Z,50.70
2019-05-07T08:55:52.637Z,52.20
2019-05-07T08:58:14.133Z,51.40
2019-05-07T09:00:35.344Z,48.80
2019-05-07T09:02:56.537Z,47.30
2019-05-07T09:05:18.163Z,48.70
2019-05-07T09:07:39.387Z,47.90
2019-05-07T09:10:02.442Z,48.80
2019-05-07T09:12:23.820Z,46.80
2019-05-07T09:14:46.376Z,44.70
2019-05-07T09:17:07.589Z,45.80
2019-05-07T09:19:32.056Z,45.40
2019-05-07T09:21:53.017Z,46.50
2019-05-07T09:24:14.209Z,47.70
2019-05-07T09:26:54.924Z,44.40
2019-05-07T09:29:22.156Z,44.40
2019-05-07T09:31:48.755Z,46.00
2019-05-07T09:34:11.770Z,44.80
2019-05-07T09:36:38.110Z,45.80
2019-05-07T09:39:02.680Z,44.50
2019-05-07T09:41:25.653Z,43.50
2019-05-07T09:43:46.864Z,44.60
2019-05-07T09:46:08.091Z,42.20
2019-05-07T09:48:29.288Z,39.90
2019-05-07T09:50:50.527Z,41.40
2019-05-07T09:53:12.786Z,41.90
2019-05-07T09:55:34.439Z,41.60
2019-05-07T09:57:55.666Z,41.10
2019-05-07T10:00:17.887Z,40.10
2019-05-07T10:02:39.312Z,39.70
2019-05-07T10:05:02.470Z,38.20
2019-05-07T10:07:23.742Z,38.40
2019-05-07T10:09:44.947Z,38.50
2019-05-07T10:12:12.267Z,37.50
2019-05-07T10:14:33.873Z,40.00
2019-05-07T10:19:47.473Z,38.10
2019-05-07T10:22:09.069Z,38.40
2019-05-07T10:24:30.473Z,38.40
2019-05-07T10:26:53.080Z,39.60
2019-05-07T10:29:14.848Z,37.80
2019-05-07T10:31:36.214Z,37.30
2019-05-07T10:33:57.608Z,36.20
2019-05-07T10:36:19.015Z,36.90
2019-05-07T10:38:40.414Z,36.00
2019-05-07T10:41:02.892Z,35.40
2019-05-07T10:43:24.669Z,36.00
2019-05-07T10:46:03.088Z,35.80
2019-05-07T10:48:26.323Z,36.90
2019-05-07T10:50:51.607Z,36.60
2019-05-07T10:53:12.667Z,35.70
2019-05-07T10:55:33.966Z,36.50
2019-05-07T10:57:55.201Z,38.40
2019-05-07T11:00:19.727Z,37.10
2019-05-07T11:02:42.568Z,36.70
2019-05-07T11:05:06.118Z,37.00
2019-05-07T11:07:27.320Z,37.80
2019-05-07T11:09:48.558Z,37.40
2019-05-07T11:12:09.792Z,37.00
2019-05-07T11:14:32.121Z,36.70
2019-05-07T11:16:55.445Z,37.00
2019-05-07T11:19:18.897Z,36.70
2019-05-07T11:21:41.865Z,37.20
2019-05-07T11:24:03.842Z,36.60
2019-05-07T11:26:26.385Z,36.90
2019-05-07T11:28:47.604Z,34.80
2019-05-07T11:31:08.821Z,35.00
2019-05-07T11:33:32.323Z,35.00
2019-05-07T11:35:53.185Z,33.50
2019-05-07T11:38:21.081Z,33.10
2019-05-07T11:40:37.499Z,33.20
2019-05-07T11:43:06.586Z,34.10
2019-05-07T11:45:38.401Z,33.80
2019-05-07T11:48:01.902Z,33.80
2019-05-07T11:50:44.202Z,34.00
2019-05-07T11:53:07.573Z,34.10
2019-05-07T11:55:29.209Z,33.00
2019-05-07T11:57:51.976Z,33.30
2019-05-07T12:00:16.695Z,34.00
2019-05-07T12:02:37.910Z,32.20
2019-05-07T12:04:59.146Z,31.40
2019-05-07T12:07:22.283Z,32.00
2019-05-07T12:09:43.496Z,30.90
2019-05-07T12:12:04.817Z,31.70
2019-05-07T12:14:31.350Z,31.00
2019-05-07T12:16:49.178Z,30.80
2019-05-07T12:19:13.065Z,30.40
2019-05-07T12:21:34.600Z,32.30
2019-05-07T12:23:55.917Z,32.50
2019-05-07T12:26:17.118Z,33.20
2019-05-07T12:28:38.576Z,32.50
2019-05-07T12:31:07.716Z,32.20
2019-05-07T12:33:48.182Z,32.40
2019-05-07T12:36:12.573Z,34.50
2019-05-07T12:38:36.628Z,33.30
2019-05-07T12:40:59.890Z,32.40
2019-05-07T12:43:21.108Z,34.30
2019-05-07T12:45:42.593Z,32.40
2019-05-07T12:48:04.209Z,33.60
2019-05-07T12:50:25.524Z,32.80
2019-05-07T12:52:54.623Z,32.50
2019-05-07T12:55:34.331Z,33.70
2019-05-07T12:57:55.562Z,30.10
2019-05-07T13:00:46.687Z,30.70
2019-05-07T13:03:09.917Z,33.40
2019-05-07T13:05:31.137Z,32.80
2019-05-07T13:07:53.042Z,32.90
2019-05-07T13:10:14.518Z,30.70
2019-05-07T13:12:35.732Z,30.40
2019-05-07T13:14:56.966Z,31.00
2019-05-07T13:17:18.179Z,31.40
2019-05-07T13:19:39.481Z,31.00
2019-05-07T13:22:02.310Z,32.50
2019-05-07T13:24:24.939Z,33.60
2019-05-07T13:26:46.151Z,32.00
2019-05-07T13:29:07.387Z,31.50
2019-05-07T13:31:32.711Z,32.00
2019-05-07T13:33:55.377Z,31.50
2019-05-07T13:36:16.686Z,31.20
2019-05-07T13:38:46.036Z,30.20
2019-05-07T13:41:23.993Z,30.00
2019-05-07T13:44:04.000Z,30.70
2019-05-07T13:46:26.629Z,29.90
2019-05-07T13:48:47.854Z,29.00
2019-05-07T13:51:09.199Z,29.90
2019-05-07T13:53:32.252Z,31.10
2019-05-07T13:55:53.808Z,31.70
2019-05-07T13:58:15.217Z,30.00
2019-05-07T14:00:54.850Z,30.80
2019-05-07T14:03:16.403Z,31.70
2019-05-07T14:05:37.848Z,32.00
2019-05-07T14:07:59.138Z,33.10
2019-05-07T14:10:20.345Z,32.40
2019-05-07T14:12:42.509Z,32.20
2019-05-07T14:15:05.361Z,33.20
2019-05-07T14:17:26.685Z,33.60
2019-05-07T14:19:47.886Z,33.00
2019-05-07T14:22:16.340Z,32.40
2019-05-07T14:24:32.835Z,32.80
2019-05-07T14:26:54.330Z,33.40
2019-05-07T14:29:15.640Z,33.70
2019-05-07T14:31:36.975Z,33.70
2019-05-07T14:34:16.946Z,32.70
2019-05-07T14:36:42.657Z,32.30
2019-05-07T14:39:06.193Z,32.50
2019-05-07T14:41:27.522Z,31.90
2019-05-07T14:43:53.964Z,31.30
2019-05-07T14:46:15.156Z,30.80
2019-05-07T14:48:37.546Z,30.90
2019-05-07T14:50:58.784Z,30.00
2019-05-07T14:53:22.243Z,29.60
2019-05-07T14:55:43.406Z,30.00
2019-05-07T14:58:05.126Z,28.80
2019-05-07T15:00:26.322Z,29.80
2019-05-07T15:02:47.532Z,29.50
2019-05-07T15:05:09.447Z,29.70
2019-05-07T15:07:32.583Z,29.10
2019-05-07T15:09:57.625Z,30.20
2019-05-07T15:12:19.350Z,30.10
2019-05-07T15:14:42.165Z,30.90
2019-05-07T15:17:08.374Z,33.40
2019-05-07T15:19:31.994Z,33.40
2019-05-07T15:21:57.957Z,32.60
2019-05-07T15:24:19.172Z,33.20
2019-05-07T15:26:41.956Z,32.60
2019-05-07T15:29:05.912Z,32.60
2019-05-07T15:31:34.862Z,32.20
2019-05-07T15:33:57.119Z,32.30
2019-05-07T15:36:18.507Z,30.90
2019-05-07T15:38:39.976Z,31.40
2019-05-07T15:41:02.226Z,31.00
2019-05-07T15:43:23.917Z,30.90
2019-05-07T15:45:45.141Z,31.60
2019-05-07T15:48:06.458Z,32.20
2019-05-07T15:50:27.666Z,31.80
2019-05-07T15:52:58.583Z,31.80
2019-05-07T15:55:17.422Z,32.50
2019-05-07T15:57:38.736Z,32.00
2019-05-07T16:00:04.895Z,32.70
2019-05-07T16:02:28.164Z,31.80
2019-05-07T16:04:49.435Z,32.30
2019-05-07T16:07:13.281Z,34.30
2019-05-07T16:12:26.339Z,33.00
2019-05-07T16:14:47.626Z,33.30
2019-05-07T16:17:12.885Z,32.60
2019-05-07T16:19:33.965Z,33.40
2019-05-07T16:21:56.701Z,33.80
2019-05-07T16:24:17.960Z,33.20
2019-05-07T16:26:41.718Z,33.60
2019-05-07T16:29:04.712Z,34.10
2019-05-07T16:31:26.222Z,33.90
2019-05-07T16:33:47.594Z,34.00
2019-05-07T16:36:08.929Z,34.20
2019-05-07T16:38:32.549Z,34.80
2019-05-07T16:40:53.486Z,35.40
2019-05-07T16:43:14.783Z,34.50
2019-05-07T16:45:36.721Z,34.60
2019-05-07T16:48:00.364Z,35.60
2019-05-07T16:50:22.422Z,35.50
2019-05-07T16:52:44.049Z,35.40
2019-05-07T16:55:06.258Z,35.80
2019-05-07T16:57:33.689Z,36.40
2019-05-07T16:59:56.050Z,36.20
2019-05-07T17:02:19.161Z,35.70
2019-05-07T17:04:42.640Z,36.30
2019-05-07T17:07:05.736Z,36.60
2019-05-07T17:09:28.475Z,37.00
2019-05-07T17:11:49.666Z,36.70
2019-05-07T17:14:12.731Z,35.80
2019-05-07T17:16:33.982Z,36.20
2019-05-07T17:18:55.205Z,36.60
2019-05-07T17:21:16.425Z,36.80
2019-05-07T17:23:44.034Z,38.00
2019-05-07T17:26:00.852Z,37.10
2019-05-07T17:28:22.902Z,37.60
2019-05-07T17:30:44.852Z,38.10
2019-05-07T17:33:06.239Z,37.70
2019-05-07T17:35:27.470Z,38.20
2019-05-07T17:37:48.769Z,38.80
2019-05-07T17:40:11.895Z,38.90
2019-05-07T17:42:33.377Z,38.50
2019-05-07T17:44:54.694Z,39.30
2019-05-07T17:47:15.910Z,39.20
2019-05-07T17:49:37.246Z,39.70
2019-05-07T17:51:58.431Z,40.10
2019-05-07T17:54:19.671Z,40.90
2019-05-07T17:56:42.347Z,41.10
2019-05-07T17:59:03.630Z,42.10
2019-05-07T18:01:27.855Z,41.40
2019-05-07T18:03:49.078Z,42.10
2019-05-07T18:06:12.366Z,42.70
2019-05-07T18:08:33.535Z,43.10
2019-05-07T18:10:56.641Z,43.60
2019-05-07T18:13:17.953Z,44.10
2019-05-07T18:15:39.278Z,44.40
2019-05-07T18:18:12.976Z,44.90
2019-05-07T18:20:34.366Z,45.20
2019-05-07T18:22:56.831Z,45.40
2019-05-07T18:25:18.069Z,45.90
2019-05-07T18:27:39.294Z,45.70
2019-05-07T18:30:02.414Z,46.20
2019-05-07T18:32:27.297Z,46.30
2019-05-07T18:34:48.504Z,47.20
2019-05-07T18:37:09.729Z,47.40
2019-05-07T18:39:32.424Z,47.90
2019-05-07T18:41:53.926Z,48.10
2019-05-07T18:44:16.126Z,48.30
2019-05-07T18:46:37.777Z,48.10
2019-05-07T18:48:58.993Z,49.00
2019-05-07T18:51:20.468Z,49.70
2019-05-07T18:53:42.475Z,50.10
2019-05-07T18:56:04.201Z,51.70
2019-05-07T18:58:27.741Z,52.50
2019-05-07T19:01:08.968Z,54.40
2019-05-07T19:03:32.351Z,54.60
2019-05-07T19:05:54.477Z,56.40
2019-05-07T19:08:16.257Z,57.00
2019-05-07T19:10:37.478Z,57.10
2019-05-07T19:12:58.709Z,58.30
2019-05-07T19:15:21.973Z,58.30
2019-05-07T19:17:43.523Z,60.00
2019-05-07T19:20:05.463Z,60.20
2019-05-07T19:22:26.700Z,60.80
2019-05-07T19:24:48.322Z,58.20
2019-05-07T19:27:09.927Z,59.20
2019-05-07T19:29:32.585Z,60.20
2019-05-07T19:31:54.427Z,60.30
2019-05-07T19:34:23.404Z,59.80
2019-05-07T19:36:45.175Z,60.70
2019-05-07T19:39:06.584Z,62.30
2019-05-07T19:41:31.684Z,63.30
2019-05-07T19:43:52.911Z,63.60
2019-05-07T19:46:14.155Z,64.50
2019-05-07T19:48:35.425Z,65.80
2019-05-07T19:50:56.707Z,68.20
2019-05-07T19:53:20.442Z,69.30
2019-05-07T19:56:01.964Z,70.50
2019-05-07T19:58:23.209Z,70.10
2019-05-07T20:00:45.379Z,71.20
2019-05-07T20:03:06.787Z,71.70
2019-05-07T20:05:28.030Z,71.30
2019-05-07T20:07:53.276Z,70.50
2019-05-07T20:10:15.196Z,70.20
2019-05-07T20:12:36.558Z,68.70
2019-05-07T20:14:57.766Z,67.20
2019-05-07T20:17:19.000Z,64.60
2019-05-07T20:19:48.155Z,63.70
2019-05-07T20:22:09.050Z,63.90
2019-05-07T20:24:32.613Z,63.60
2019-05-07T20:26:53.903Z,65.70
2019-05-07T20:29:15.301Z,66.80
2019-05-07T20:31:36.522Z,68.20
2019-05-07T20:33:58.221Z,68.70
2019-05-07T20:36:19.459Z,68.40
2019-05-07T20:38:42.552Z,68.00
2019-05-07T20:41:03.859Z,67.30
2019-05-07T20:43:25.349Z,67.10
2019-05-07T20:45:46.587Z,67.10
2019-05-07T20:48:07.817Z,66.60
2019-05-07T20:50:29.154Z,64.80
2019-05-07T20:52:52.423Z,63.90
2019-05-07T20:55:28.223Z,64.90
2019-05-07T20:57:43.415Z,63.70
2019-05-07T21:00:09.324Z,63.40
2019-05-07T21:02:44.887Z,63.90
2019-05-07T21:04:56.250Z,65.40
2019-05-07T21:07:17.843Z,66.20
2019-05-07T21:09:39.122Z,67.20
2019-05-07T21:12:00.347Z,67.80
2019-05-07T21:14:22.802Z,69.20
2019-05-07T21:16:44.292Z,68.20
2019-05-07T21:19:05.591Z,69.20
2019-05-07T21:21:26.910Z,69.60
2019-05-07T21:23:48.513Z,68.90
2019-05-07T21:26:14.098Z,69.90
2019-05-07T21:28:34.214Z,70.10
2019-05-07T21:30:55.851Z,70.50
2019-05-07T21:33:17.170Z,72.50
2019-05-07T21:35:38.379Z,72.60
2019-05-07T21:37:59.742Z,73.70
2019-05-07T21:40:22.443Z,73.70
2019-05-07T21:42:43.953Z,74.70
2019-05-07T21:45:05.490Z,75.70
2019-05-07T21:47:32.669Z,77.30
2019-05-07T21:49:59.319Z,78.30
2019-05-07T21:52:22.167Z,78.00
2019-05-07T21:54:52.527Z,79.40
2019-05-07T21:57:33.001Z,80.20
2019-05-07T22:00:12.916Z,79.90
2019-05-07T22:02:36.322Z,81.90
2019-05-07T22:04:57.516Z,82.20
2019-05-07T22:07:18.729Z,85.40
2019-05-07T22:09:40.019Z,87.60
2019-05-07T22:12:03.539Z,87.80
2019-05-07T22:14:24.345Z,89.60
2019-05-07T22:16:45.552Z,90.40
2019-05-07T22:19:06.865Z,91.10
2019-05-07T22:21:28.099Z,91.60
2019-05-07T22:23:49.422Z,92.00
2019-05-07T22:26:20.277Z,92.60
2019-05-07T22:28:34.826Z,92.60
2019-05-07T22:31:03.627Z,93.10
2019-05-07T22:33:44.041Z,93.40
2019-05-07T22:36:06.780Z,94.00
2019-05-07T22:38:32.213Z,93.90
2019-05-07T22:40:54.955Z,94.80
2019-05-07T22:43:17.766Z,95.70
2019-05-07T22:45:39.367Z,95.00
2019-05-07T22:48:02.683Z,95.60
2019-05-07T22:50:23.793Z,94.90
2019-05-07T22:52:44.990Z,95.70
2019-05-07T22:55:06.202Z,97.50
2019-05-07T22:57:32.729Z,97.40
2019-05-07T22:59:54.390Z,97.70
2019-05-07T23:02:16.829Z,97.70
2019-05-07T23:04:38.053Z,97.80
2019-05-07T23:06:59.454Z,97.50
2019-05-07T23:09:22.348Z,96.70
2019-05-07T23:11:43.844Z,96.40
2019-05-07T23:14:05.044Z,96.40
2019-05-07T23:16:26.256Z,96.70
2019-05-07T23:18:47.493Z,97.00
2019-05-07T23:21:08.706Z,97.00
2019-05-07T23:23:29.906Z,96.90
2019-05-07T23:25:52.364Z,97.10
2019-05-07T23:28:13.830Z,96.60
2019-05-07T23:30:35.061Z,96.80
2019-05-07T23:32:56.258Z,96.90
2019-05-07T23:35:22.188Z,96.90
2019-05-07T23:37:44.235Z,97.30
2019-05-07T23:40:12.128Z,97.20
2019-05-07T23:42:35.631Z,97.50
2019-05-07T23:44:56.848Z,97.70
2019-05-07T23:47:18.054Z,97.90
2019-05-07T23:49:39.305Z,97.70
2019-05-07T23:52:02.447Z,97.90
2019-05-07T23:54:23.985Z,98.10
2019-05-07T23:56:45.208Z,98.10
2019-05-07T23:59:06.399Z,97.90
